sensor_id;sensor_type;location;lat;lon;timestamp;pressure;altitude;pressure_sealevel;temperature;humidity
28606;BME280;46498;49.968;7.754;2023-04-01T00:02:42;95346.00;;;7.42;100.00
28606;BME280;46498;49.968;7.754;2023-04-01T00:07:43;95354.00;;;7.29;100.00
28606;BME280;46498;49.968;7.754;2023-04-01T00:12:44;95350.00;;;7.28;100.00
28606;BME280;46498;49.968;7.754;2023-04-01T00:17:45;95341.00;;;7.19;100.00
28606;BME280;46498;49.968;7.754;2023-04-01T00:22:46;95344.00;;;7.14;100.00
28606;BME280;46498;49.968;7.754;2023-04-01T00:27:50;95352.00;;;7.09;100.00
28606;BME280;46498;49.968;7.754;2023-04-01T00:32:52;95345.00;;;7.00;100.00
28606;BME280;46498;49.968;7.754;2023-04-01T00:37:54;95349.00;;;7.03;100.00
28606;BME280;46498;49.968;7.754;2023-04-01T00:42:55;95345.00;;;7.05;100.00
28606;BME280;46498;49.968;7.754;2023-04-01T00:48:00;95346.00;;;7.08;100.00
28606;BME280;46498;49.968;7.754;2023-04-01T00:53:03;95340.00;;;7.06;100.00
28606;BME280;46498;49.968;7.754;2023-04-01T00:58:09;95336.00;;;7.05;100.00
28606;BME280;46498;49.968;7.754;2023-04-01T01:03:11;95338.00;;;7.04;100.00
28606;BME280;46498;49.968;7.754;2023-04-01T01:08:37;95338.00;;;7.12;100.00
28606;BME280;46498;49.968;7.754;2023-04-01T01:32:07;95324.00;;;7.27;100.00
28606;BME280;46498;49.968;7.754;2023-04-01T01:37:16;95319.00;;;7.34;100.00
28606;BME280;46498;49.968;7.754;2023-04-01T01:42:19;95319.00;;;7.45;100.00
28606;BME280;46498;49.968;7.754;2023-04-01T01:47:21;95323.00;;;7.46;100.00
28606;BME280;46498;49.968;7.754;2023-04-01T01:52:24;95308.00;;;7.38;100.00
28606;BME280;46498;49.968;7.754;2023-04-01T01:57:33;95308.00;;;7.38;100.00
28606;BME280;46498;49.968;7.754;2023-04-01T02:02:36;95317.00;;;7.37;100.00
28606;BME280;46498;49.968;7.754;2023-04-01T02:07:39;95300.00;;;7.27;100.00
28606;BME280;46498;49.968;7.754;2023-04-01T02:12:46;95305.00;;;7.20;100.00
28606;BME280;46498;49.968;7.754;2023-04-01T02:17:47;95306.00;;;7.24;100.00
28606;BME280;46498;49.968;7.754;2023-04-01T02:22:50;95297.00;;;7.29;100.00
28606;BME280;46498;49.968;7.754;2023-04-01T02:27:53;95295.00;;;7.27;100.00
28606;BME280;46498;49.968;7.754;2023-04-01T02:32:56;95294.00;;;7.29;100.00
28606;BME280;46498;49.968;7.754;2023-04-01T02:38:00;95298.00;;;7.17;100.00
28606;BME280;46498;49.968;7.754;2023-04-01T02:43:01;95290.00;;;7.14;100.00
28606;BME280;46498;49.968;7.754;2023-04-01T02:48:03;95289.00;;;7.11;100.00
28606;BME280;46498;49.968;7.754;2023-04-01T02:53:04;95290.00;;;7.01;100.00
28606;BME280;46498;49.968;7.754;2023-04-01T02:58:07;95290.00;;;6.93;100.00
28606;BME280;46498;49.968;7.754;2023-04-01T03:03:11;95288.00;;;6.95;100.00
28606;BME280;46498;49.968;7.754;2023-04-01T03:08:14;95291.00;;;6.90;100.00
28606;BME280;46498;49.968;7.754;2023-04-01T03:13:15;95275.00;;;6.90;100.00
28606;BME280;46498;49.968;7.754;2023-04-01T03:18:17;95278.00;;;6.87;100.00
28606;BME280;46498;49.968;7.754;2023-04-01T03:23:18;95277.00;;;6.84;100.00
28606;BME280;46498;49.968;7.754;2023-04-01T03:28:21;95286.00;;;6.79;100.00
28606;BME280;46498;49.968;7.754;2023-04-01T03:33:22;95286.00;;;6.83;100.00
28606;BME280;46498;49.968;7.754;2023-04-01T03:38:23;95284.00;;;6.78;100.00
28606;BME280;46498;49.968;7.754;2023-04-01T03:43:24;95281.00;;;6.78;100.00
28606;BME280;46498;49.968;7.754;2023-04-01T03:48:25;95279.00;;;6.71;100.00
28606;BME280;46498;49.968;7.754;2023-04-01T03:53:26;95267.00;;;6.68;100.00
28606;BME280;46498;49.968;7.754;2023-04-01T03:58:28;95273.00;;;6.69;100.00
28606;BME280;46498;49.968;7.754;2023-04-01T04:03:29;95268.00;;;6.71;100.00
28606;BME280;46498;49.968;7.754;2023-04-01T04:08:30;95271.00;;;6.71;100.00
28606;BME280;46498;49.968;7.754;2023-04-01T04:13:31;95270.00;;;6.69;100.00
28606;BME280;46498;49.968;7.754;2023-04-01T04:18:35;95275.00;;;6.65;100.00
28606;BME280;46498;49.968;7.754;2023-04-01T04:23:36;95268.00;;;6.64;100.00
28606;BME280;46498;49.968;7.754;2023-04-01T04:28:38;95277.00;;;6.63;100.00
28606;BME280;46498;49.968;7.754;2023-04-01T04:33:39;95274.00;;;6.63;100.00
28606;BME280;46498;49.968;7.754;2023-04-01T04:38:40;95280.00;;;6.59;100.00
28606;BME280;46498;49.968;7.754;2023-04-01T04:43:41;95291.00;;;6.63;100.00
28606;BME280;46498;49.968;7.754;2023-04-01T04:48:42;95282.00;;;6.66;100.00
28606;BME280;46498;49.968;7.754;2023-04-01T04:53:46;95288.00;;;6.61;100.00
28606;BME280;46498;49.968;7.754;2023-04-01T04:58:47;95281.00;;;6.64;100.00
28606;BME280;46498;49.968;7.754;2023-04-01T05:03:51;95276.00;;;6.66;100.00
28606;BME280;46498;49.968;7.754;2023-04-01T05:08:52;95272.00;;;6.61;100.00
28606;BME280;46498;49.968;7.754;2023-04-01T05:13:53;95273.00;;;6.60;100.00
28606;BME280;46498;49.968;7.754;2023-04-01T05:18:54;95275.00;;;6.60;100.00
28606;BME280;46498;49.968;7.754;2023-04-01T05:23:56;95278.00;;;6.60;100.00
28606;BME280;46498;49.968;7.754;2023-04-01T05:28:58;95278.00;;;6.53;100.00
28606;BME280;46498;49.968;7.754;2023-04-01T05:34:02;95281.00;;;6.55;100.00
28606;BME280;46498;49.968;7.754;2023-04-01T05:39:03;95285.00;;;6.58;100.00
28606;BME280;46498;49.968;7.754;2023-04-01T05:44:05;95285.00;;;6.54;100.00
28606;BME280;46498;49.968;7.754;2023-04-01T05:50:06;95291.00;;;6.54;100.00
28606;BME280;46498;49.968;7.754;2023-04-01T05:55:08;95289.00;;;6.53;100.00
28606;BME280;46498;49.968;7.754;2023-04-01T06:00:10;95282.00;;;6.52;100.00
28606;BME280;46498;49.968;7.754;2023-04-01T06:05:24;95296.00;;;6.54;100.00
28606;BME280;46498;49.968;7.754;2023-04-01T06:10:39;95285.00;;;6.51;100.00
28606;BME280;46498;49.968;7.754;2023-04-01T06:15:52;95285.00;;;6.50;100.00
28606;BME280;46498;49.968;7.754;2023-04-01T06:21:07;95293.00;;;6.57;100.00
28606;BME280;46498;49.968;7.754;2023-04-01T06:26:33;95289.00;;;6.60;100.00
28606;BME280;46498;49.968;7.754;2023-04-01T06:33:01;95293.00;;;6.66;100.00
28606;BME280;46498;49.968;7.754;2023-04-01T06:47:20;95293.00;;;6.89;100.00
28606;BME280;46498;49.968;7.754;2023-04-01T06:54:10;95301.00;;;6.98;100.00
28606;BME280;46498;49.968;7.754;2023-04-01T06:59:33;95300.00;;;7.02;100.00
28606;BME280;46498;49.968;7.754;2023-04-01T07:04:40;95306.00;;;7.15;100.00
28606;BME280;46498;49.968;7.754;2023-04-01T07:09:51;95309.00;;;7.28;100.00
28606;BME280;46498;49.968;7.754;2023-04-01T07:16:25;95309.00;;;7.26;100.00
28606;BME280;46498;49.968;7.754;2023-04-01T07:28:17;95295.00;;;7.35;100.00
28606;BME280;46498;49.968;7.754;2023-04-01T07:33:39;95307.00;;;7.48;100.00
28606;BME280;46498;49.968;7.754;2023-04-01T07:54:56;95316.00;;;7.84;100.00
28606;BME280;46498;49.968;7.754;2023-04-01T08:00:20;95334.00;;;7.88;100.00
28606;BME280;46498;49.968;7.754;2023-04-01T08:05:52;95333.00;;;7.93;100.00
28606;BME280;46498;49.968;7.754;2023-04-01T08:11:06;95338.00;;;8.02;100.00
28606;BME280;46498;49.968;7.754;2023-04-01T08:18:09;95341.00;;;7.96;100.00
28606;BME280;46498;49.968;7.754;2023-04-01T08:23:16;95352.00;;;8.08;100.00
28606;BME280;46498;49.968;7.754;2023-04-01T08:28:58;95365.00;;;8.14;100.00
28606;BME280;46498;49.968;7.754;2023-04-01T08:34:04;95366.00;;;8.13;100.00
28606;BME280;46498;49.968;7.754;2023-04-01T08:39:15;95363.00;;;7.97;100.00
28606;BME280;46498;49.968;7.754;2023-04-01T08:45:44;95371.00;;;7.95;100.00
28606;BME280;46498;49.968;7.754;2023-04-01T09:07:32;95368.00;;;7.86;100.00
28606;BME280;46498;49.968;7.754;2023-04-01T09:24:07;95378.00;;;8.05;100.00
28606;BME280;46498;49.968;7.754;2023-04-01T09:45:23;95398.00;;;8.31;100.00
28606;BME280;46498;49.968;7.754;2023-04-01T10:34:53;95435.00;;;9.08;100.00
28606;BME280;46498;49.968;7.754;2023-04-01T10:42:14;95433.00;;;9.38;100.00
28606;BME280;46498;49.968;7.754;2023-04-01T10:48:20;95439.00;;;9.35;100.00
28606;BME280;46498;49.968;7.754;2023-04-01T10:55:06;95437.00;;;9.41;100.00
28606;BME280;46498;49.968;7.754;2023-04-01T11:01:05;95431.00;;;9.37;100.00
28606;BME280;46498;49.968;7.754;2023-04-01T11:07:35;95438.00;;;9.60;100.00
28606;BME280;46498;49.968;7.754;2023-04-01T11:15:41;95429.00;;;9.77;100.00
28606;BME280;46498;49.968;7.754;2023-04-01T11:26:52;95447.00;;;9.71;100.00
28606;BME280;46498;49.968;7.754;2023-04-01T11:39:59;95438.00;;;9.70;100.00
28606;BME280;46498;49.968;7.754;2023-04-01T11:45:31;95441.00;;;9.81;100.00
28606;BME280;46498;49.968;7.754;2023-04-01T11:50:51;95452.00;;;9.99;100.00
28606;BME280;46498;49.968;7.754;2023-04-01T12:14:47;95472.00;;;9.64;100.00
28606;BME280;46498;49.968;7.754;2023-04-01T12:28:14;95485.00;;;10.68;100.00
28606;BME280;46498;49.968;7.754;2023-04-01T12:43:53;95499.00;;;11.24;97.63
28606;BME280;46498;49.968;7.754;2023-04-01T12:49:06;95499.00;;;10.99;100.00
28606;BME280;46498;49.968;7.754;2023-04-01T13:01:16;95500.00;;;11.25;100.00
28606;BME280;46498;49.968;7.754;2023-04-01T13:10:06;95510.00;;;10.70;100.00
28606;BME280;46498;49.968;7.754;2023-04-01T13:15:24;95519.00;;;10.66;100.00
28606;BME280;46498;49.968;7.754;2023-04-01T13:31:44;95531.00;;;10.70;100.00
28606;BME280;46498;49.968;7.754;2023-04-01T13:37:03;95533.00;;;10.74;100.00
28606;BME280;46498;49.968;7.754;2023-04-01T13:43:42;95540.00;;;10.24;100.00
28606;BME280;46498;49.968;7.754;2023-04-01T13:49:05;95547.00;;;9.93;100.00
28606;BME280;46498;49.968;7.754;2023-04-01T14:16:13;95560.00;;;9.90;100.00
28606;BME280;46498;49.968;7.754;2023-04-01T14:23:17;95568.00;;;9.48;100.00
28606;BME280;46498;49.968;7.754;2023-04-01T14:49:01;95588.00;;;10.07;100.00
28606;BME280;46498;49.968;7.754;2023-04-01T14:55:59;95591.00;;;10.52;100.00
28606;BME280;46498;49.968;7.754;2023-04-01T15:02:33;95592.00;;;10.76;100.00
28606;BME280;46498;49.968;7.754;2023-04-01T15:10:28;95594.00;;;10.51;100.00
28606;BME280;46498;49.968;7.754;2023-04-01T15:24:06;95604.00;;;9.88;100.00
28606;BME280;46498;49.968;7.754;2023-04-01T15:39:54;95614.00;;;9.66;100.00
28606;BME280;46498;49.968;7.754;2023-04-01T15:45:40;95626.00;;;9.47;100.00
28606;BME280;46498;49.968;7.754;2023-04-01T15:50:51;95632.00;;;9.30;100.00
28606;BME280;46498;49.968;7.754;2023-04-01T15:55:59;95642.00;;;9.31;100.00
28606;BME280;46498;49.968;7.754;2023-04-01T16:02:07;95649.00;;;9.39;100.00
28606;BME280;46498;49.968;7.754;2023-04-01T16:07:27;95653.00;;;9.33;100.00
28606;BME280;46498;49.968;7.754;2023-04-01T16:12:53;95660.00;;;9.41;100.00
28606;BME280;46498;49.968;7.754;2023-04-01T16:27:35;95669.00;;;9.22;100.00
28606;BME280;46498;49.968;7.754;2023-04-01T16:32:57;95680.00;;;8.88;100.00
28606;BME280;46498;49.968;7.754;2023-04-01T16:41:20;95683.00;;;8.73;100.00
28606;BME280;46498;49.968;7.754;2023-04-01T16:46:34;95700.00;;;8.61;100.00
28606;BME280;46498;49.968;7.754;2023-04-01T16:53:14;95700.00;;;8.68;100.00
28606;BME280;46498;49.968;7.754;2023-04-01T16:58:41;95714.00;;;8.65;100.00
28606;BME280;46498;49.968;7.754;2023-04-01T17:03:45;95712.00;;;8.51;100.00
28606;BME280;46498;49.968;7.754;2023-04-01T17:09:25;95722.00;;;8.59;100.00
28606;BME280;46498;49.968;7.754;2023-04-01T17:14:44;95728.00;;;8.54;100.00
28606;BME280;46498;49.968;7.754;2023-04-01T17:33:59;95752.00;;;8.38;100.00
28606;BME280;46498;49.968;7.754;2023-04-01T17:39:35;95768.00;;;8.34;100.00
28606;BME280;46498;49.968;7.754;2023-04-01T17:45:19;95765.00;;;8.22;100.00
28606;BME280;46498;49.968;7.754;2023-04-01T17:58:09;95781.00;;;8.14;100.00
28606;BME280;46498;49.968;7.754;2023-04-01T18:03:28;95789.00;;;8.01;100.00
28606;BME280;46498;49.968;7.754;2023-04-01T18:16:09;95792.00;;;7.88;100.00
28606;BME280;46498;49.968;7.754;2023-04-01T18:42:28;95830.00;;;7.76;100.00
28606;BME280;46498;49.968;7.754;2023-04-01T18:47:47;95842.00;;;7.75;100.00
28606;BME280;46498;49.968;7.754;2023-04-01T18:52:59;95860.00;;;7.81;100.00
28606;BME280;46498;49.968;7.754;2023-04-01T18:58:52;95871.00;;;7.87;100.00
28606;BME280;46498;49.968;7.754;2023-04-01T19:09:44;95877.00;;;7.83;100.00
28606;BME280;46498;49.968;7.754;2023-04-01T19:21:44;95885.00;;;7.77;100.00
28606;BME280;46498;49.968;7.754;2023-04-01T19:27:41;95882.00;;;7.71;100.00
28606;BME280;46498;49.968;7.754;2023-04-01T19:46:31;95904.00;;;7.82;100.00
28606;BME280;46498;49.968;7.754;2023-04-01T19:51:47;95915.00;;;7.78;100.00
28606;BME280;46498;49.968;7.754;2023-04-01T20:02:42;95926.00;;;7.82;100.00
28606;BME280;46498;49.968;7.754;2023-04-01T20:07:52;95936.00;;;7.90;100.00
28606;BME280;46498;49.968;7.754;2023-04-01T20:13:11;95937.00;;;7.91;100.00
28606;BME280;46498;49.968;7.754;2023-04-01T20:18:26;95955.00;;;7.86;100.00
28606;BME280;46498;49.968;7.754;2023-04-01T20:23:43;95959.00;;;7.93;100.00
28606;BME280;46498;49.968;7.754;2023-04-01T20:36:31;95972.00;;;7.87;100.00
28606;BME280;46498;49.968;7.754;2023-04-01T20:45:10;95978.00;;;7.79;100.00
28606;BME280;46498;49.968;7.754;2023-04-01T20:50:35;95992.00;;;7.79;100.00
28606;BME280;46498;49.968;7.754;2023-04-01T21:00:16;95994.00;;;7.82;100.00
28606;BME280;46498;49.968;7.754;2023-04-01T21:06:13;96002.00;;;7.94;100.00
28606;BME280;46498;49.968;7.754;2023-04-01T21:12:56;96011.00;;;7.88;100.00
28606;BME280;46498;49.968;7.754;2023-04-01T21:21:18;96020.00;;;7.57;100.00
28606;BME280;46498;49.968;7.754;2023-04-01T21:36:20;96031.00;;;7.48;100.00
28606;BME280;46498;49.968;7.754;2023-04-01T21:57:51;96045.00;;;7.23;100.00
28606;BME280;46498;49.968;7.754;2023-04-01T22:10:22;96066.00;;;7.25;100.00
28606;BME280;46498;49.968;7.754;2023-04-01T22:21:20;96068.00;;;7.19;100.00
28606;BME280;46498;49.968;7.754;2023-04-01T22:34:54;96081.00;;;7.08;100.00
28606;BME280;46498;49.968;7.754;2023-04-01T22:48:18;96096.00;;;7.05;100.00
28606;BME280;46498;49.968;7.754;2023-04-01T22:54:33;96105.00;;;7.04;100.00
28606;BME280;46498;49.968;7.754;2023-04-01T22:59:48;96103.00;;;7.19;100.00
28606;BME280;46498;49.968;7.754;2023-04-01T23:04:57;96106.00;;;7.12;100.00
28606;BME280;46498;49.968;7.754;2023-04-01T23:10:01;96111.00;;;7.12;100.00
28606;BME280;46498;49.968;7.754;2023-04-01T23:15:03;96109.00;;;7.16;100.00
28606;BME280;46498;49.968;7.754;2023-04-01T23:23:12;96120.00;;;7.14;100.00
28606;BME280;46498;49.968;7.754;2023-04-01T23:28:25;96126.00;;;7.25;100.00
28606;BME280;46498;49.968;7.754;2023-04-01T23:33:32;96134.00;;;7.20;100.00
28606;BME280;46498;49.968;7.754;2023-04-01T23:38:41;96134.00;;;7.21;100.00
28606;BME280;46498;49.968;7.754;2023-04-01T23:43:43;96140.00;;;7.06;100.00
28606;BME280;46498;49.968;7.754;2023-04-01T23:48:46;96138.00;;;7.05;100.00
28606;BME280;46498;49.968;7.754;2023-04-01T23:54:56;96142.00;;;7.00;100.00
